sensor_id;sensor_type;location;lat;lon;timestamp;pressure;altitude;pressure_sealevel;temperature;humidity
64078;BME280;51039;49.696;10.808;2022-07-12T00:00:44;99112.47;;;12.46;86.49
64078;BME280;51039;49.696;10.808;2022-07-12T00:03:10;99114.44;;;12.37;87.01
64078;BME280;51039;49.696;10.808;2022-07-12T00:05:35;99113.81;;;12.35;86.81
64078;BME280;51039;49.696;10.808;2022-07-12T00:08:00;99111.16;;;12.35;86.08
64078;BME280;51039;49.696;10.808;2022-07-12T00:10:26;99108.66;;;12.27;86.92
64078;BME280;51039;49.696;10.808;2022-07-12T00:12:51;99103.97;;;12.29;86.62
64078;BME280;51039;49.696;10.808;2022-07-12T00:15:16;99112.13;;;12.27;86.32
64078;BME280;51039;49.696;10.808;2022-07-12T00:17:41;99099.47;;;12.23;86.55
64078;BME280;51039;49.696;10.808;2022-07-12T00:20:07;99096.38;;;12.19;86.60
64078;BME280;51039;49.696;10.808;2022-07-12T00:22:33;99104.72;;;12.16;86.95
64078;BME280;51039;49.696;10.808;2022-07-12T00:24:58;99103.66;;;12.10;87.20
64078;BME280;51039;49.696;10.808;2022-07-12T00:27:24;99104.00;;;12.01;87.64
64078;BME280;51039;49.696;10.808;2022-07-12T00:29:49;99098.50;;;12.02;87.51
64078;BME280;51039;49.696;10.808;2022-07-12T00:32:14;99102.56;;;11.98;88.26
64078;BME280;51039;49.696;10.808;2022-07-12T00:34:39;99102.94;;;11.95;88.34
64078;BME280;51039;49.696;10.808;2022-07-12T00:37:05;99099.88;;;11.91;88.49
64078;BME280;51039;49.696;10.808;2022-07-12T00:39:30;99097.13;;;11.85;88.75
64078;BME280;51039;49.696;10.808;2022-07-12T00:41:55;99096.84;;;11.79;88.74
64078;BME280;51039;49.696;10.808;2022-07-12T00:44:21;99101.97;;;11.81;88.61
64078;BME280;51039;49.696;10.808;2022-07-12T00:46:46;99095.78;;;11.74;88.90
64078;BME280;51039;49.696;10.808;2022-07-12T00:49:12;99101.94;;;11.74;88.63
64078;BME280;51039;49.696;10.808;2022-07-12T00:51:40;99101.31;;;11.72;87.90
64078;BME280;51039;49.696;10.808;2022-07-12T00:54:09;99100.44;;;11.65;88.52
64078;BME280;51039;49.696;10.808;2022-07-12T00:56:35;99107.19;;;11.68;88.54
64078;BME280;51039;49.696;10.808;2022-07-12T00:59:00;99096.56;;;11.68;88.14
64078;BME280;51039;49.696;10.808;2022-07-12T01:01:26;99099.03;;;11.69;88.05
64078;BME280;51039;49.696;10.808;2022-07-12T01:03:52;99091.22;;;11.61;88.39
64078;BME280;51039;49.696;10.808;2022-07-12T01:06:18;99088.50;;;11.54;88.30
64078;BME280;51039;49.696;10.808;2022-07-12T01:08:45;99094.81;;;11.53;88.57
64078;BME280;51039;49.696;10.808;2022-07-12T01:11:11;99094.00;;;11.53;88.26
64078;BME280;51039;49.696;10.808;2022-07-12T01:13:37;99090.50;;;11.52;88.49
64078;BME280;51039;49.696;10.808;2022-07-12T01:16:04;99084.22;;;11.53;88.79
64078;BME280;51039;49.696;10.808;2022-07-12T01:18:31;99092.63;;;11.57;88.42
64078;BME280;51039;49.696;10.808;2022-07-12T01:20:57;99091.16;;;11.54;87.86
64078;BME280;51039;49.696;10.808;2022-07-12T01:23:28;99091.03;;;11.41;88.19
64078;BME280;51039;49.696;10.808;2022-07-12T01:25:54;99088.50;;;11.33;88.54
64078;BME280;51039;49.696;10.808;2022-07-12T01:28:20;99087.25;;;11.29;88.76
64078;BME280;51039;49.696;10.808;2022-07-12T01:30:47;99089.72;;;11.30;88.73
64078;BME280;51039;49.696;10.808;2022-07-12T01:33:12;99094.25;;;11.36;88.57
64078;BME280;51039;49.696;10.808;2022-07-12T01:35:39;99092.22;;;11.38;89.33
64078;BME280;51039;49.696;10.808;2022-07-12T01:38:04;99091.59;;;11.36;90.00
64078;BME280;51039;49.696;10.808;2022-07-12T01:40:30;99090.59;;;11.37;90.16
64078;BME280;51039;49.696;10.808;2022-07-12T01:42:55;99090.78;;;11.36;90.15
64078;BME280;51039;49.696;10.808;2022-07-12T01:45:21;99098.97;;;11.41;89.67
64078;BME280;51039;49.696;10.808;2022-07-12T01:47:47;99103.47;;;11.40;89.37
64078;BME280;51039;49.696;10.808;2022-07-12T01:50:13;99098.56;;;11.37;88.76
64078;BME280;51039;49.696;10.808;2022-07-12T01:52:40;99093.53;;;11.28;89.73
64078;BME280;51039;49.696;10.808;2022-07-12T01:55:06;99090.47;;;11.24;89.54
64078;BME280;51039;49.696;10.808;2022-07-12T01:57:32;99098.97;;;11.19;90.00
64078;BME280;51039;49.696;10.808;2022-07-12T01:59:57;99099.28;;;11.10;90.12
64078;BME280;51039;49.696;10.808;2022-07-12T02:02:27;99096.75;;;11.02;90.67
64078;BME280;51039;49.696;10.808;2022-07-12T02:04:53;99094.88;;;10.95;90.69
64078;BME280;51039;49.696;10.808;2022-07-12T02:07:19;99097.75;;;11.00;90.08
64078;BME280;51039;49.696;10.808;2022-07-12T02:09:45;99098.78;;;10.99;90.09
64078;BME280;51039;49.696;10.808;2022-07-12T02:12:10;99095.84;;;10.94;89.78
64078;BME280;51039;49.696;10.808;2022-07-12T02:14:35;99095.84;;;10.94;89.82
64078;BME280;51039;49.696;10.808;2022-07-12T02:17:00;99089.28;;;10.90;89.96
64078;BME280;51039;49.696;10.808;2022-07-12T02:19:26;99091.13;;;10.90;90.08
64078;BME280;51039;49.696;10.808;2022-07-12T02:21:51;99101.91;;;10.88;90.00
64078;BME280;51039;49.696;10.808;2022-07-12T02:24:17;99093.06;;;10.81;90.53
64078;BME280;51039;49.696;10.808;2022-07-12T02:26:42;99097.72;;;10.79;90.53
64078;BME280;51039;49.696;10.808;2022-07-12T02:29:08;99099.63;;;10.85;90.19
64078;BME280;51039;49.696;10.808;2022-07-12T02:31:34;99104.09;;;10.85;90.11
64078;BME280;51039;49.696;10.808;2022-07-12T02:33:59;99099.16;;;10.81;90.43
64078;BME280;51039;49.696;10.808;2022-07-12T02:36:24;99104.28;;;10.83;89.70
64078;BME280;51039;49.696;10.808;2022-07-12T02:38:50;99105.31;;;10.82;89.79
64078;BME280;51039;49.696;10.808;2022-07-12T02:41:15;99101.41;;;10.78;90.00
64078;BME280;51039;49.696;10.808;2022-07-12T02:43:41;99105.66;;;10.79;90.01
64078;BME280;51039;49.696;10.808;2022-07-12T02:46:07;99101.00;;;10.81;89.84
64078;BME280;51039;49.696;10.808;2022-07-12T02:48:34;99100.38;;;10.79;89.47
64078;BME280;51039;49.696;10.808;2022-07-12T02:50:59;99105.03;;;10.77;89.42
64078;BME280;51039;49.696;10.808;2022-07-12T02:53:25;99109.06;;;10.73;89.83
64078;BME280;51039;49.696;10.808;2022-07-12T02:55:50;99114.53;;;10.71;89.56
64078;BME280;51039;49.696;10.808;2022-07-12T02:58:16;99112.72;;;10.72;89.91
64078;BME280;51039;49.696;10.808;2022-07-12T03:00:41;99110.00;;;10.65;90.15
64078;BME280;51039;49.696;10.808;2022-07-12T03:03:08;99101.88;;;10.67;90.12
64078;BME280;51039;49.696;10.808;2022-07-12T03:05:34;99103.50;;;10.68;90.11
64078;BME280;51039;49.696;10.808;2022-07-12T03:07:59;99095.31;;;10.63;89.92
64078;BME280;51039;49.696;10.808;2022-07-12T03:10:25;99106.06;;;10.61;90.12
64078;BME280;51039;49.696;10.808;2022-07-12T03:12:50;99103.25;;;10.63;89.66
64078;BME280;51039;49.696;10.808;2022-07-12T03:15:16;99106.53;;;10.65;89.57
64078;BME280;51039;49.696;10.808;2022-07-12T03:17:41;99102.22;;;10.64;89.89
64078;BME280;51039;49.696;10.808;2022-07-12T03:20:07;99104.50;;;10.67;89.78
64078;BME280;51039;49.696;10.808;2022-07-12T03:22:36;99113.72;;;10.71;89.80
64078;BME280;51039;49.696;10.808;2022-07-12T03:25:02;99111.25;;;10.69;90.70
64078;BME280;51039;49.696;10.808;2022-07-12T03:27:28;99117.28;;;10.78;89.80
64078;BME280;51039;49.696;10.808;2022-07-12T03:29:53;99118.28;;;10.77;89.80
64078;BME280;51039;49.696;10.808;2022-07-12T03:32:18;99117.38;;;10.70;90.14
64078;BME280;51039;49.696;10.808;2022-07-12T03:34:44;99121.78;;;10.63;90.25
64078;BME280;51039;49.696;10.808;2022-07-12T03:37:09;99120.66;;;10.72;89.60
64078;BME280;51039;49.696;10.808;2022-07-12T03:39:34;99117.72;;;10.81;88.91
64078;BME280;51039;49.696;10.808;2022-07-12T03:42:00;99116.16;;;10.87;88.44
64078;BME280;51039;49.696;10.808;2022-07-12T03:44:25;99114.13;;;10.89;88.07
64078;BME280;51039;49.696;10.808;2022-07-12T03:46:50;99122.75;;;10.91;88.00
64078;BME280;51039;49.696;10.808;2022-07-12T03:49:16;99117.16;;;11.01;87.20
64078;BME280;51039;49.696;10.808;2022-07-12T03:51:41;99120.50;;;11.10;86.93
64078;BME280;51039;49.696;10.808;2022-07-12T03:54:07;99123.03;;;11.18;86.61
64078;BME280;51039;49.696;10.808;2022-07-12T03:56:33;99120.28;;;11.26;86.12
64078;BME280;51039;49.696;10.808;2022-07-12T03:59:20;99112.19;;;11.34;85.83
64078;BME280;51039;49.696;10.808;2022-07-12T04:01:46;99115.88;;;11.55;85.20
64078;BME280;51039;49.696;10.808;2022-07-12T04:04:12;99124.75;;;11.90;84.12
64078;BME280;51039;49.696;10.808;2022-07-12T04:06:37;99133.34;;;12.21;83.14
64078;BME280;51039;49.696;10.808;2022-07-12T04:09:03;99133.91;;;12.44;82.40
64078;BME280;51039;49.696;10.808;2022-07-12T04:11:29;99130.16;;;12.67;81.51
64078;BME280;51039;49.696;10.808;2022-07-12T04:13:55;99131.03;;;12.87;80.62
64078;BME280;51039;49.696;10.808;2022-07-12T04:16:20;99142.22;;;13.24;79.18
64078;BME280;51039;49.696;10.808;2022-07-12T04:18:46;99140.44;;;13.45;78.23
64078;BME280;51039;49.696;10.808;2022-07-12T04:21:11;99147.06;;;14.22;75.60
64078;BME280;51039;49.696;10.808;2022-07-12T04:23:37;99153.97;;;16.54;67.99
64078;BME280;51039;49.696;10.808;2022-07-12T04:26:03;99147.50;;;18.01;61.76
64078;BME280;51039;49.696;10.808;2022-07-12T04:28:28;99152.25;;;18.94;57.89
64078;BME280;51039;49.696;10.808;2022-07-12T04:30:53;99145.44;;;19.32;57.50
64078;BME280;51039;49.696;10.808;2022-07-12T04:33:19;99150.13;;;20.38;54.64
64078;BME280;51039;49.696;10.808;2022-07-12T04:35:44;99161.41;;;21.18;51.41
64078;BME280;51039;49.696;10.808;2022-07-12T04:38:10;99159.03;;;21.22;50.85
64078;BME280;51039;49.696;10.808;2022-07-12T04:40:35;99157.47;;;21.26;51.20
64078;BME280;51039;49.696;10.808;2022-07-12T04:43:00;99159.69;;;21.56;50.27
64078;BME280;51039;49.696;10.808;2022-07-12T04:45:25;99158.81;;;22.15;48.29
64078;BME280;51039;49.696;10.808;2022-07-12T04:47:51;99160.72;;;22.52;47.42
64078;BME280;51039;49.696;10.808;2022-07-12T04:50:16;99151.88;;;23.56;45.11
64078;BME280;51039;49.696;10.808;2022-07-12T04:52:41;99160.56;;;23.52;44.86
64078;BME280;51039;49.696;10.808;2022-07-12T04:55:07;99163.31;;;24.14;43.63
64078;BME280;51039;49.696;10.808;2022-07-12T04:57:33;99156.19;;;24.69;42.18
64078;BME280;51039;49.696;10.808;2022-07-12T04:59:59;99158.78;;;25.00;41.68
64078;BME280;51039;49.696;10.808;2022-07-12T05:02:24;99161.19;;;26.25;39.43
64078;BME280;51039;49.696;10.808;2022-07-12T05:04:50;99174.56;;;26.75;37.78
64078;BME280;51039;49.696;10.808;2022-07-12T05:07:15;99171.09;;;26.70;38.01
64078;BME280;51039;49.696;10.808;2022-07-12T05:09:41;99174.56;;;26.94;38.07
64078;BME280;51039;49.696;10.808;2022-07-12T05:12:07;99177.44;;;27.27;37.25
64078;BME280;51039;49.696;10.808;2022-07-12T05:14:32;99175.75;;;26.64;38.74
64078;BME280;51039;49.696;10.808;2022-07-12T05:16:57;99182.56;;;27.86;36.43
64078;BME280;51039;49.696;10.808;2022-07-12T05:19:23;99185.22;;;26.67;38.84
64078;BME280;51039;49.696;10.808;2022-07-12T05:21:49;99190.56;;;27.20;36.88
64078;BME280;51039;49.696;10.808;2022-07-12T05:24:15;99183.41;;;28.33;35.68
64078;BME280;51039;49.696;10.808;2022-07-12T05:26:40;99178.66;;;28.11;35.84
64078;BME280;51039;49.696;10.808;2022-07-12T05:29:06;99173.81;;;28.82;34.93
64078;BME280;51039;49.696;10.808;2022-07-12T05:31:32;99183.00;;;28.58;34.97
64078;BME280;51039;49.696;10.808;2022-07-12T05:33:58;99182.78;;;28.08;35.82
64078;BME280;51039;49.696;10.808;2022-07-12T05:36:23;99184.31;;;29.03;34.69
64078;BME280;51039;49.696;10.808;2022-07-12T05:38:49;99178.72;;;29.08;34.50
64078;BME280;51039;49.696;10.808;2022-07-12T05:41:14;99178.03;;;29.89;33.22
64078;BME280;51039;49.696;10.808;2022-07-12T05:43:40;99188.44;;;30.63;31.83
64078;BME280;51039;49.696;10.808;2022-07-12T05:46:05;99187.69;;;30.40;32.16
64078;BME280;51039;49.696;10.808;2022-07-12T05:48:30;99177.47;;;31.12;31.48
64078;BME280;51039;49.696;10.808;2022-07-12T05:50:56;99188.38;;;30.95;31.74
64078;BME280;51039;49.696;10.808;2022-07-12T05:53:41;99191.00;;;31.17;31.59
64078;BME280;51039;49.696;10.808;2022-07-12T05:56:07;99195.44;;;30.47;33.33
64078;BME280;51039;49.696;10.808;2022-07-12T05:58:32;99187.25;;;29.56;33.74
64078;BME280;51039;49.696;10.808;2022-07-12T06:00:57;99194.97;;;30.53;32.80
64078;BME280;51039;49.696;10.808;2022-07-12T06:03:23;99195.75;;;32.04;30.45
64078;BME280;51039;49.696;10.808;2022-07-12T06:05:48;99200.88;;;32.14;30.29
64078;BME280;51039;49.696;10.808;2022-07-12T06:08:13;99198.88;;;32.88;29.43
64078;BME280;51039;49.696;10.808;2022-07-12T06:10:39;99203.47;;;31.58;30.65
64078;BME280;51039;49.696;10.808;2022-07-12T06:13:04;99194.97;;;31.68;31.42
64078;BME280;51039;49.696;10.808;2022-07-12T06:15:30;99203.03;;;32.56;30.14
64078;BME280;51039;49.696;10.808;2022-07-12T06:17:55;99200.69;;;33.98;28.01
64078;BME280;51039;49.696;10.808;2022-07-12T06:20:21;99200.56;;;32.16;30.64
64078;BME280;51039;49.696;10.808;2022-07-12T06:22:47;99207.25;;;32.92;30.42
64078;BME280;51039;49.696;10.808;2022-07-12T06:25:12;99206.34;;;33.59;28.69
64078;BME280;51039;49.696;10.808;2022-07-12T06:27:37;99210.56;;;32.76;30.24
64078;BME280;51039;49.696;10.808;2022-07-12T06:30:04;99210.47;;;33.44;28.99
64078;BME280;51039;49.696;10.808;2022-07-12T06:32:30;99218.06;;;33.90;27.85
64078;BME280;51039;49.696;10.808;2022-07-12T06:34:55;99217.63;;;30.85;33.01
64078;BME280;51039;49.696;10.808;2022-07-12T06:37:22;99221.03;;;32.01;31.72
64078;BME280;51039;49.696;10.808;2022-07-12T06:39:47;99227.44;;;32.40;30.48
64078;BME280;51039;49.696;10.808;2022-07-12T06:42:13;99227.16;;;31.89;31.76
64078;BME280;51039;49.696;10.808;2022-07-12T06:44:38;99227.88;;;32.98;30.19
64078;BME280;51039;49.696;10.808;2022-07-12T06:47:03;99226.75;;;34.13;28.23
64078;BME280;51039;49.696;10.808;2022-07-12T06:49:29;99238.31;;;32.01;30.98
64078;BME280;51039;49.696;10.808;2022-07-12T06:51:55;99223.84;;;31.08;32.78
64078;BME280;51039;49.696;10.808;2022-07-12T06:54:20;99220.88;;;33.60;29.18
64078;BME280;51039;49.696;10.808;2022-07-12T06:56:45;99221.91;;;34.10;27.59
64078;BME280;51039;49.696;10.808;2022-07-12T06:59:10;99230.94;;;32.58;29.82
64078;BME280;51039;49.696;10.808;2022-07-12T07:01:39;99230.72;;;31.81;30.87
64078;BME280;51039;49.696;10.808;2022-07-12T07:04:05;99230.81;;;32.45;29.54
64078;BME280;51039;49.696;10.808;2022-07-12T07:06:30;99228.78;;;33.40;28.28
64078;BME280;51039;49.696;10.808;2022-07-12T07:08:56;99230.81;;;34.86;26.73
64078;BME280;51039;49.696;10.808;2022-07-12T07:11:21;99232.81;;;34.52;27.10
64078;BME280;51039;49.696;10.808;2022-07-12T07:13:47;99235.06;;;35.32;25.89
64078;BME280;51039;49.696;10.808;2022-07-12T07:16:12;99239.38;;;35.46;25.52
64078;BME280;51039;49.696;10.808;2022-07-12T07:18:38;99237.22;;;35.39;25.80
64078;BME280;51039;49.696;10.808;2022-07-12T07:21:05;99243.88;;;34.89;26.15
64078;BME280;51039;49.696;10.808;2022-07-12T07:23:31;99238.59;;;35.33;25.21
64078;BME280;51039;49.696;10.808;2022-07-12T07:25:57;99238.41;;;35.78;24.74
64078;BME280;51039;49.696;10.808;2022-07-12T07:28:22;99230.53;;;31.60;30.48
64078;BME280;51039;49.696;10.808;2022-07-12T07:30:47;99248.44;;;31.00;30.78
64078;BME280;51039;49.696;10.808;2022-07-12T07:33:19;99256.50;;;31.71;30.04
64078;BME280;51039;49.696;10.808;2022-07-12T07:35:45;99245.94;;;34.00;27.16
64078;BME280;51039;49.696;10.808;2022-07-12T07:38:11;99253.03;;;34.01;27.10
64078;BME280;51039;49.696;10.808;2022-07-12T07:40:36;99255.03;;;34.80;25.90
64078;BME280;51039;49.696;10.808;2022-07-12T07:43:01;99252.41;;;35.21;25.41
64078;BME280;51039;49.696;10.808;2022-07-12T07:45:27;99250.19;;;33.77;27.42
64078;BME280;51039;49.696;10.808;2022-07-12T07:47:52;99253.19;;;34.05;26.79
64078;BME280;51039;49.696;10.808;2022-07-12T07:50:17;99261.19;;;35.91;24.71
64078;BME280;51039;49.696;10.808;2022-07-12T07:52:43;99253.59;;;36.01;24.46
64078;BME280;51039;49.696;10.808;2022-07-12T07:55:09;99252.94;;;35.38;25.46
64078;BME280;51039;49.696;10.808;2022-07-12T07:57:34;99256.38;;;36.45;24.19
64078;BME280;51039;49.696;10.808;2022-07-12T08:00:00;99256.69;;;36.71;23.99
64078;BME280;51039;49.696;10.808;2022-07-12T08:02:25;99255.78;;;35.54;25.04
64078;BME280;51039;49.696;10.808;2022-07-12T08:04:50;99238.22;;;34.15;27.34
64078;BME280;51039;49.696;10.808;2022-07-12T08:07:16;99240.47;;;32.52;30.31
64078;BME280;51039;49.696;10.808;2022-07-12T08:09:42;99244.69;;;32.49;28.93
64078;BME280;51039;49.696;10.808;2022-07-12T08:12:07;99240.63;;;34.62;26.46
64078;BME280;51039;49.696;10.808;2022-07-12T08:14:33;99236.81;;;32.30;28.87
64078;BME280;51039;49.696;10.808;2022-07-12T08:16:58;99239.50;;;36.18;24.37
64078;BME280;51039;49.696;10.808;2022-07-12T08:19:23;99233.09;;;33.71;27.85
64078;BME280;51039;49.696;10.808;2022-07-12T08:21:48;99230.28;;;29.96;32.92
64078;BME280;51039;49.696;10.808;2022-07-12T08:24:14;99223.56;;;28.27;37.12
64078;BME280;51039;49.696;10.808;2022-07-12T08:26:39;99226.75;;;26.72;39.81
64078;BME280;51039;49.696;10.808;2022-07-12T08:29:05;99228.34;;;27.46;38.18
64078;BME280;51039;49.696;10.808;2022-07-12T08:31:30;99231.97;;;28.31;37.79
64078;BME280;51039;49.696;10.808;2022-07-12T08:33:56;99217.41;;;27.70;37.79
64078;BME280;51039;49.696;10.808;2022-07-12T08:36:21;99223.25;;;26.72;39.58
64078;BME280;51039;49.696;10.808;2022-07-12T08:38:46;99238.09;;;27.28;37.85
64078;BME280;51039;49.696;10.808;2022-07-12T08:41:12;99236.31;;;30.83;31.78
64078;BME280;51039;49.696;10.808;2022-07-12T08:43:39;99235.94;;;33.03;27.74
64078;BME280;51039;49.696;10.808;2022-07-12T08:48:31;99235.84;;;34.96;24.43
64078;BME280;51039;49.696;10.808;2022-07-12T08:51:00;99233.94;;;36.02;23.29
64078;BME280;51039;49.696;10.808;2022-07-12T08:53:27;99232.88;;;35.38;22.78
64078;BME280;51039;49.696;10.808;2022-07-12T08:55:53;99233.81;;;35.05;24.40
64078;BME280;51039;49.696;10.808;2022-07-12T08:58:18;99235.03;;;32.34;27.00
64078;BME280;51039;49.696;10.808;2022-07-12T09:00:43;99221.91;;;30.38;29.75
64078;BME280;51039;49.696;10.808;2022-07-12T09:03:09;99228.03;;;29.11;31.97
64078;BME280;51039;49.696;10.808;2022-07-12T09:05:37;99223.59;;;30.02;31.05
64078;BME280;51039;49.696;10.808;2022-07-12T09:08:04;99221.34;;;29.45;31.72
64078;BME280;51039;49.696;10.808;2022-07-12T09:13:14;99226.59;;;26.58;36.35
64078;BME280;51039;49.696;10.808;2022-07-12T09:15:39;99225.06;;;26.76;35.44
64078;BME280;51039;49.696;10.808;2022-07-12T09:18:05;99227.00;;;29.35;30.95
64078;BME280;51039;49.696;10.808;2022-07-12T09:20:43;99231.78;;;30.25;30.20
64078;BME280;51039;49.696;10.808;2022-07-12T09:23:16;99239.25;;;32.14;28.66
64078;BME280;51039;49.696;10.808;2022-07-12T09:25:45;99226.56;;;33.34;25.89
64078;BME280;51039;49.696;10.808;2022-07-12T09:28:12;99234.34;;;30.84;28.85
64078;BME280;51039;49.696;10.808;2022-07-12T09:30:46;99230.47;;;31.25;27.96
64078;BME280;51039;49.696;10.808;2022-07-12T09:33:13;99224.47;;;29.52;31.62
64078;BME280;51039;49.696;10.808;2022-07-12T09:36:01;99226.72;;;31.12;29.34
64078;BME280;51039;49.696;10.808;2022-07-12T09:38:51;99231.50;;;31.81;27.72
64078;BME280;51039;49.696;10.808;2022-07-12T09:41:19;99222.84;;;32.05;27.42
64078;BME280;51039;49.696;10.808;2022-07-12T09:43:46;99227.88;;;30.71;29.23
64078;BME280;51039;49.696;10.808;2022-07-12T09:46:13;99226.81;;;29.82;30.09
64078;BME280;51039;49.696;10.808;2022-07-12T09:48:39;99222.72;;;31.09;27.58
64078;BME280;51039;49.696;10.808;2022-07-12T09:51:05;99230.69;;;31.98;26.02
64078;BME280;51039;49.696;10.808;2022-07-12T09:53:49;99234.25;;;31.90;25.52
64078;BME280;51039;49.696;10.808;2022-07-12T09:56:17;99219.09;;;32.19;27.16
64078;BME280;51039;49.696;10.808;2022-07-12T09:58:52;99223.47;;;33.56;24.74
64078;BME280;51039;49.696;10.808;2022-07-12T10:01:18;99231.59;;;32.55;25.32
64078;BME280;51039;49.696;10.808;2022-07-12T10:03:45;99231.72;;;30.39;29.10
64078;BME280;51039;49.696;10.808;2022-07-12T10:06:11;99232.41;;;30.76;27.66
64078;BME280;51039;49.696;10.808;2022-07-12T10:08:38;99229.09;;;31.97;27.78
64078;BME280;51039;49.696;10.808;2022-07-12T10:11:05;99225.63;;;32.61;25.25
64078;BME280;51039;49.696;10.808;2022-07-12T10:13:31;99226.28;;;31.19;27.05
64078;BME280;51039;49.696;10.808;2022-07-12T10:15:58;99216.44;;;29.92;27.16
64078;BME280;51039;49.696;10.808;2022-07-12T10:18:25;99215.06;;;30.26;28.52
64078;BME280;51039;49.696;10.808;2022-07-12T10:20:51;99219.31;;;30.32;27.92
64078;BME280;51039;49.696;10.808;2022-07-12T10:25:42;99209.25;;;31.39;26.22
64078;BME280;51039;49.696;10.808;2022-07-12T10:28:08;99210.69;;;30.79;27.65
64078;BME280;51039;49.696;10.808;2022-07-12T10:30:43;99210.53;;;30.44;29.33
64078;BME280;51039;49.696;10.808;2022-07-12T10:38:25;99209.69;;;31.15;27.29
64078;BME280;51039;49.696;10.808;2022-07-12T10:40:51;99205.75;;;29.46;29.28
64078;BME280;51039;49.696;10.808;2022-07-12T10:43:18;99197.91;;;29.30;28.95
64078;BME280;51039;49.696;10.808;2022-07-12T10:46:21;99205.69;;;29.73;28.83
64078;BME280;51039;49.696;10.808;2022-07-12T10:48:50;99199.34;;;28.86;30.11
64078;BME280;51039;49.696;10.808;2022-07-12T10:51:18;99201.88;;;28.22;31.12
64078;BME280;51039;49.696;10.808;2022-07-12T10:53:47;99207.44;;;27.98;31.19
64078;BME280;51039;49.696;10.808;2022-07-12T10:56:16;99209.75;;;27.91;30.17
64078;BME280;51039;49.696;10.808;2022-07-12T10:58:48;99206.91;;;28.62;29.96
64078;BME280;51039;49.696;10.808;2022-07-12T11:01:17;99202.72;;;29.47;30.41
64078;BME280;51039;49.696;10.808;2022-07-12T11:03:48;99200.44;;;30.22;28.21
64078;BME280;51039;49.696;10.808;2022-07-12T11:06:15;99188.63;;;29.31;29.01
64078;BME280;51039;49.696;10.808;2022-07-12T11:09:03;99187.63;;;29.13;29.87
64078;BME280;51039;49.696;10.808;2022-07-12T11:11:39;99190.28;;;28.91;29.78
64078;BME280;51039;49.696;10.808;2022-07-12T11:14:08;99190.88;;;28.74;29.97
64078;BME280;51039;49.696;10.808;2022-07-12T11:16:42;99191.00;;;28.36;29.97
64078;BME280;51039;49.696;10.808;2022-07-12T11:19:08;99187.28;;;27.80;30.91
64078;BME280;51039;49.696;10.808;2022-07-12T11:21:34;99190.19;;;27.51;31.41
64078;BME280;51039;49.696;10.808;2022-07-12T11:24:00;99195.84;;;27.11;31.95
64078;BME280;51039;49.696;10.808;2022-07-12T11:26:26;99196.09;;;28.10;31.25
64078;BME280;51039;49.696;10.808;2022-07-12T11:28:54;99195.16;;;27.81;31.46
64078;BME280;51039;49.696;10.808;2022-07-12T11:31:22;99187.78;;;28.34;32.51
64078;BME280;51039;49.696;10.808;2022-07-12T11:33:48;99180.22;;;27.79;31.48
64078;BME280;51039;49.696;10.808;2022-07-12T11:36:16;99187.34;;;27.18;31.46
64078;BME280;51039;49.696;10.808;2022-07-12T11:38:43;99191.00;;;27.08;31.05
64078;BME280;51039;49.696;10.808;2022-07-12T11:41:11;99189.19;;;27.22;31.63
64078;BME280;51039;49.696;10.808;2022-07-12T11:43:37;99190.91;;;27.37;32.13
64078;BME280;51039;49.696;10.808;2022-07-12T11:46:04;99187.53;;;28.16;31.50
64078;BME280;51039;49.696;10.808;2022-07-12T11:48:30;99186.50;;;27.17;32.51
64078;BME280;51039;49.696;10.808;2022-07-12T11:51:02;99177.50;;;27.98;31.51
64078;BME280;51039;49.696;10.808;2022-07-12T11:53:30;99175.25;;;27.29;32.11
64078;BME280;51039;49.696;10.808;2022-07-12T11:55:57;99174.78;;;27.22;31.70
64078;BME280;51039;49.696;10.808;2022-07-12T11:58:24;99180.31;;;27.12;33.13
64078;BME280;51039;49.696;10.808;2022-07-12T12:00:51;99192.19;;;26.78;33.01
64078;BME280;51039;49.696;10.808;2022-07-12T12:03:18;99185.38;;;26.22;34.19
64078;BME280;51039;49.696;10.808;2022-07-12T12:06:03;99181.41;;;26.09;33.71
64078;BME280;51039;49.696;10.808;2022-07-12T12:08:29;99175.44;;;26.66;32.30
64078;BME280;51039;49.696;10.808;2022-07-12T12:10:55;99177.31;;;27.13;31.61
64078;BME280;51039;49.696;10.808;2022-07-12T12:13:22;99172.63;;;27.19;31.93
64078;BME280;51039;49.696;10.808;2022-07-12T12:15:55;99174.63;;;26.41;32.98
64078;BME280;51039;49.696;10.808;2022-07-12T12:18:36;99170.13;;;26.26;33.57
64078;BME280;51039;49.696;10.808;2022-07-12T12:21:07;99177.25;;;26.22;33.52
64078;BME280;51039;49.696;10.808;2022-07-12T12:23:34;99163.75;;;26.41;34.00
64078;BME280;51039;49.696;10.808;2022-07-12T12:26:08;99173.91;;;26.83;32.99
64078;BME280;51039;49.696;10.808;2022-07-12T12:31:11;99161.47;;;26.77;32.94
64078;BME280;51039;49.696;10.808;2022-07-12T12:36:13;99155.47;;;26.99;32.77
64078;BME280;51039;49.696;10.808;2022-07-12T12:38:40;99146.38;;;27.33;32.85
64078;BME280;51039;49.696;10.808;2022-07-12T12:41:07;99141.22;;;26.64;32.94
64078;BME280;51039;49.696;10.808;2022-07-12T12:43:33;99142.63;;;26.33;34.31
64078;BME280;51039;49.696;10.808;2022-07-12T12:45:58;99134.56;;;26.52;33.11
64078;BME280;51039;49.696;10.808;2022-07-12T12:50:54;99132.84;;;26.37;33.54
64078;BME280;51039;49.696;10.808;2022-07-12T12:53:28;99129.00;;;26.38;33.78
64078;BME280;51039;49.696;10.808;2022-07-12T12:55:54;99132.06;;;26.31;33.81
64078;BME280;51039;49.696;10.808;2022-07-12T12:58:21;99122.34;;;25.96;34.35
64078;BME280;51039;49.696;10.808;2022-07-12T13:00:49;99127.03;;;26.43;33.61
64078;BME280;51039;49.696;10.808;2022-07-12T13:03:17;99132.63;;;26.81;32.92
64078;BME280;51039;49.696;10.808;2022-07-12T13:05:43;99131.75;;;27.05;33.45
64078;BME280;51039;49.696;10.808;2022-07-12T13:08:09;99128.69;;;27.50;33.85